Terminal Aerodrome Forecast
Issued by NWS

Home | Current Version | Previous Version | Graphics & Text | Print | Product List | Glossary Off
Versions: 1 2 3 4 5 6 7 8 9 10 11 12 13 14 15

000
FTUS43 KMPX 281700
TAFRNH
TAF
KRNH 281740Z 2818/2918 00000KT 5SM -SN OVC035
      TEMPO 2818/2819 BKN025 OVC035
     FM281930 02003KT P6SM FEW040 SCT250
     FM290300 36006KT P6SM BKN100=

USA.gov is the U.S. government's official web portal to all federal, state and local government web resources and services.